createdAt,value
2023-03-01T00:02:27.278Z,-4.16
2023-03-01T00:05:33.110Z,-4.12
2023-03-01T00:08:49.635Z,-4.19
2023-03-01T00:11:42.991Z,-4.25
2023-03-01T00:14:29.732Z,-4.31
2023-03-01T00:17:33.785Z,-4.32
2023-03-01T00:20:44.446Z,-4.35
2023-03-01T00:24:33.686Z,-4.35
2023-03-01T00:27:19.904Z,-4.41
2023-03-01T00:30:14.433Z,-4.30
2023-03-01T00:33:08.581Z,-4.32
2023-03-01T00:36:07.700Z,-4.33
2023-03-01T00:39:20.889Z,-4.30
2023-03-01T00:42:17.802Z,-4.33
2023-03-01T00:45:16.683Z,-4.41
2023-03-01T00:48:15.031Z,-4.51
2023-03-01T00:51:52.866Z,-4.62
2023-03-01T00:55:40.508Z,-4.69
2023-03-01T00:59:22.146Z,-4.80
2023-03-01T01:03:03.555Z,-4.86
2023-03-01T01:06:34.383Z,-4.87
2023-03-01T01:09:57.946Z,-4.87
2023-03-01T01:13:19.713Z,-4.89
2023-03-01T01:16:25.844Z,-4.94
2023-03-01T01:19:25.816Z,-4.94
2023-03-01T01:23:00.436Z,-4.94
2023-03-01T01:26:15.450Z,-4.97
2023-03-01T01:29:16.556Z,-4.99
2023-03-01T01:32:38.323Z,-5.00
2023-03-01T01:35:53.658Z,-5.01
2023-03-01T01:39:00.802Z,-4.98
2023-03-01T01:42:29.522Z,-4.96
2023-03-01T01:45:56.534Z,-4.97
2023-03-01T01:49:12.360Z,-4.96
2023-03-01T01:52:53.098Z,-5.03
2023-03-01T01:56:16.342Z,-5.06
2023-03-01T01:59:25.407Z,-5.18
2023-03-01T02:02:32.173Z,-5.20
2023-03-01T02:06:14.364Z,-5.23
2023-03-01T02:09:56.756Z,-5.31
2023-03-01T02:13:35.691Z,-5.43
2023-03-01T02:17:02.890Z,-5.43
2023-03-01T02:20:30.316Z,-5.42
2023-03-01T02:23:19.404Z,-5.44
2023-03-01T02:26:54.318Z,-5.43
2023-03-01T02:29:45.240Z,-5.49
2023-03-01T02:32:49.068Z,-5.41
2023-03-01T02:36:32.400Z,-5.31
2023-03-01T02:39:31.116Z,-5.37
2023-03-01T02:42:45.580Z,-5.42
2023-03-01T02:45:36.764Z,-5.48
2023-03-01T02:49:09.814Z,-5.46
2023-03-01T02:52:42.247Z,-5.50
2023-03-01T02:56:20.155Z,-5.62
2023-03-01T03:00:09.289Z,-5.55
2023-03-01T03:03:31.265Z,-5.52
2023-03-01T03:06:50.948Z,-5.57
2023-03-01T03:10:06.227Z,-5.52
2023-03-01T03:13:14.002Z,-5.44
2023-03-01T03:16:29.660Z,-5.33
2023-03-01T03:19:59.701Z,-5.20
2023-03-01T03:23:42.673Z,-5.24
2023-03-01T03:26:50.557Z,-5.35
2023-03-01T03:30:23.659Z,-5.30
2023-03-01T03:33:14.956Z,-5.30
2023-03-01T03:36:27.457Z,-5.29
2023-03-01T03:39:56.248Z,-5.48
2023-03-01T03:42:51.236Z,-5.54
2023-03-01T03:45:36.860Z,-5.49
2023-03-01T03:48:38.520Z,-5.47
2023-03-01T03:52:12.736Z,-5.59
2023-03-01T03:55:10.402Z,-5.62
2023-03-01T03:58:45.739Z,-5.50
2023-03-01T04:02:14.967Z,-5.54
2023-03-01T04:05:32.673Z,-5.58
2023-03-01T04:08:37.758Z,-5.58
2023-03-01T04:11:47.517Z,-5.55
2023-03-01T04:14:39.836Z,-5.57
2023-03-01T04:17:46.001Z,-5.51
2023-03-01T04:21:12.628Z,-5.58
2023-03-01T04:24:24.582Z,-5.59
2023-03-01T04:27:38.466Z,-5.59
2023-03-01T04:31:03.879Z,-5.56
2023-03-01T04:34:18.846Z,-5.60
2023-03-01T04:37:20.115Z,-5.65
2023-03-01T04:40:29.878Z,-5.64
2023-03-01T04:43:46.752Z,-5.62
2023-03-01T04:47:00.760Z,-5.63
2023-03-01T04:50:23.945Z,-5.79
2023-03-01T04:53:49.163Z,-5.84
2023-03-01T04:57:38.214Z,-5.82
2023-03-01T05:00:37.368Z,-5.87
2023-03-01T05:03:35.130Z,-5.81
2023-03-01T05:06:32.987Z,-5.83
2023-03-01T05:09:57.286Z,-5.79
2023-03-01T05:13:36.260Z,-5.85
2023-03-01T05:16:38.167Z,-5.88
2023-03-01T05:20:00.625Z,-5.91
2023-03-01T05:23:07.317Z,-5.93
2023-03-01T05:26:31.090Z,-5.92
2023-03-01T05:29:21.251Z,-5.88
2023-03-01T05:32:56.696Z,-5.85
2023-03-01T05:36:12.329Z,-5.78
2023-03-01T05:39:08.257Z,-5.78
2023-03-01T05:42:33.054Z,-5.77
2023-03-01T05:45:57.943Z,-5.78
2023-03-01T05:49:13.677Z,-5.73
2023-03-01T05:52:23.916Z,-5.69
2023-03-01T05:55:41.142Z,-5.71
2023-03-01T05:59:19.486Z,-5.68
2023-03-01T06:02:10.610Z,-5.75
2023-03-01T06:05:08.841Z,-5.68
2023-03-01T06:08:15.520Z,-5.63
2023-03-01T06:11:35.896Z,-5.56
2023-03-01T06:15:11.364Z,-5.41
2023-03-01T06:17:58.936Z,-5.40
2023-03-01T06:21:25.989Z,-5.40
2023-03-01T06:25:01.512Z,-5.26
2023-03-01T06:28:09.497Z,-5.12
2023-03-01T06:31:26.262Z,-5.20
2023-03-01T06:34:46.236Z,-5.16
2023-03-01T06:38:19.020Z,-5.06
2023-03-01T06:42:00.170Z,-5.08
2023-03-01T06:45:42.168Z,-4.84
2023-03-01T06:48:58.685Z,-4.71
2023-03-01T06:52:19.071Z,-4.58
2023-03-01T06:55:40.989Z,-4.62
2023-03-01T06:58:49.091Z,-4.54
2023-03-01T07:02:17.498Z,-4.27
2023-03-01T07:05:58.170Z,-4.15
2023-03-01T07:09:20.761Z,-4.26
2023-03-01T07:12:41.581Z,-4.16
2023-03-01T07:16:29.548Z,-3.83
2023-03-01T07:19:52.465Z,-3.58
2023-03-01T07:23:11.231Z,-3.38
2023-03-01T07:26:46.208Z,-3.09
2023-03-01T07:30:35.658Z,-2.86
2023-03-01T07:34:19.858Z,-2.47
2023-03-01T07:37:55.665Z,-2.34
2023-03-01T07:41:45.345Z,-2.02
2023-03-01T07:45:34.806Z,-1.93
2023-03-01T07:49:09.862Z,-1.79
2023-03-01T07:52:48.398Z,-1.57
2023-03-01T07:56:43.263Z,-1.26
2023-03-01T08:00:32.420Z,-1.07
2023-03-01T08:08:48.697Z,-0.73
2023-03-01T08:12:31.113Z,-0.58
2023-03-01T08:16:12.728Z,-0.43
2023-03-01T08:20:01.780Z,-0.21
2023-03-01T08:23:43.842Z,-0.07
2023-03-01T08:27:05.275Z,0.10
2023-03-01T08:30:54.607Z,0.05
2023-03-01T08:34:37.184Z,0.32
2023-03-01T08:38:13.549Z,0.51
2023-03-01T08:41:48.310Z,0.80
2023-03-01T08:45:37.515Z,0.90
2023-03-01T08:49:26.899Z,1.36
2023-03-01T08:53:17.378Z,1.65
2023-03-01T08:57:06.193Z,1.78
2023-03-01T09:00:59.285Z,2.06
2023-03-01T09:04:24.452Z,2.36
2023-03-01T09:09:02.479Z,2.54
2023-03-01T09:12:34.709Z,2.67
2023-03-01T09:17:01.379Z,3.11
2023-03-01T09:21:40.139Z,3.38
2023-03-01T09:26:00.740Z,3.64
2023-03-01T09:30:37.993Z,3.67
2023-03-01T09:35:23.493Z,3.89
2023-03-01T09:39:52.882Z,4.17
2023-03-01T09:44:25.250Z,4.29
2023-03-01T09:48:40.025Z,4.30
2023-03-01T09:52:41.126Z,4.79
2023-03-01T09:56:37.533Z,4.71
2023-03-01T10:00:37.945Z,4.76
2023-03-01T10:04:37.224Z,5.04
2023-03-01T10:08:41.557Z,5.05
2023-03-01T10:12:32.464Z,5.45
2023-03-01T10:16:26.932Z,5.44
2023-03-01T10:20:15.478Z,5.83
2023-03-01T10:23:56.029Z,5.49
2023-03-01T10:27:48.204Z,5.61
2023-03-01T10:31:30.603Z,5.54
2023-03-01T10:35:21.849Z,5.44
2023-03-01T10:39:10.966Z,5.62
2023-03-01T10:43:05.934Z,6.50
2023-03-01T10:47:07.318Z,6.40
2023-03-01T10:51:00.654Z,6.35
2023-03-01T10:54:48.204Z,6.42
2023-03-01T10:58:49.786Z,6.44
2023-03-01T11:02:38.995Z,6.68
2023-03-01T11:06:36.823Z,6.79
2023-03-01T11:10:15.416Z,7.13
2023-03-01T11:14:26.477Z,7.21
2023-03-01T11:18:09.008Z,8.04
2023-03-01T11:22:02.124Z,8.20
2023-03-01T11:25:44.617Z,8.10
2023-03-01T11:29:14.546Z,7.83
2023-03-01T11:33:04.868Z,8.30
2023-03-01T11:37:11.825Z,8.42
2023-03-01T11:41:06.894Z,9.03
2023-03-01T11:44:55.958Z,9.14
2023-03-01T11:48:49.820Z,9.40
2023-03-01T11:52:35.761Z,9.61
2023-03-01T11:56:16.140Z,9.87
2023-03-01T12:00:16.267Z,9.77
2023-03-01T12:04:03.951Z,10.31
2023-03-01T12:08:07.819Z,10.13
2023-03-01T12:11:57.196Z,10.01
2023-03-01T12:15:47.216Z,10.22
2023-03-01T12:19:35.546Z,10.20
2023-03-01T12:23:45.741Z,10.21
2023-03-01T12:27:40.849Z,10.70
2023-03-01T12:31:28.228Z,10.82
2023-03-01T12:35:26.404Z,10.92
2023-03-01T12:39:20.410Z,10.92
2023-03-01T12:43:21.390Z,10.86
2023-03-01T12:47:15.281Z,10.16
2023-03-01T12:50:56.293Z,9.97
2023-03-01T12:54:54.207Z,10.20
2023-03-01T12:58:50.198Z,9.73
2023-03-01T13:03:02.033Z,9.58
2023-03-01T13:07:01.563Z,10.44
2023-03-01T13:10:53.526Z,10.83
2023-03-01T13:14:40.830Z,11.16
2023-03-01T13:26:48.489Z,10.90
2023-03-01T13:30:54.886Z,10.84
2023-03-01T13:50:41.720Z,11.51
2023-03-01T13:55:15.131Z,11.93
2023-03-01T13:59:58.970Z,11.81
2023-03-01T14:04:27.379Z,11.43
2023-03-01T14:09:02.666Z,11.45
2023-03-01T14:15:29.599Z,12.14
2023-03-01T14:18:29.513Z,12.02
2023-03-01T14:27:17.066Z,11.73
2023-03-01T14:31:19.528Z,12.17
2023-03-01T14:35:23.243Z,12.38
2023-03-01T14:39:25.986Z,11.79
2023-03-01T14:43:09.418Z,12.04
2023-03-01T14:47:19.399Z,11.86
2023-03-01T14:51:40.071Z,11.62
2023-03-01T14:55:54.492Z,11.71
2023-03-01T15:00:24.669Z,12.04
2023-03-01T15:08:43.532Z,11.66
2023-03-01T15:12:34.569Z,11.31
2023-03-01T15:16:26.675Z,11.62
2023-03-01T15:20:06.726Z,10.75
2023-03-01T15:24:00.013Z,10.41
2023-03-01T15:27:43.364Z,10.66
2023-03-01T15:31:35.926Z,10.75
2023-03-01T15:35:26.328Z,10.26
2023-03-01T15:39:31.280Z,9.60
2023-03-01T15:43:36.810Z,9.91
2023-03-01T15:47:30.292Z,9.99
2023-03-01T15:51:23.368Z,9.90
2023-03-01T15:55:22.052Z,9.81
2023-03-01T15:59:24.431Z,9.69
2023-03-01T16:03:14.910Z,9.46
2023-03-01T16:11:00.467Z,9.28
2023-03-01T16:14:49.051Z,9.01
2023-03-01T16:25:32.108Z,8.35
2023-03-01T16:29:23.611Z,7.76
2023-03-01T16:33:27.376Z,6.94
2023-03-01T16:37:24.952Z,6.24
2023-03-01T16:41:18.861Z,5.92
2023-03-01T16:45:22.791Z,5.80
2023-03-01T16:49:14.227Z,5.78
2023-03-01T16:52:57.549Z,5.74
2023-03-01T16:56:50.479Z,5.68
2023-03-01T17:01:05.416Z,5.23
2023-03-01T17:04:55.220Z,5.01
2023-03-01T17:08:44.578Z,4.90
2023-03-01T17:12:34.035Z,4.71
2023-03-01T17:16:24.722Z,4.54
2023-03-01T17:20:05.619Z,4.37
2023-03-01T17:23:55.036Z,4.13
2023-03-01T17:27:37.434Z,3.94
2023-03-01T17:31:25.743Z,3.77
2023-03-01T17:35:15.493Z,3.56
2023-03-01T17:38:51.452Z,3.37
2023-03-01T17:42:31.767Z,3.22
2023-03-01T17:46:18.541Z,2.99
2023-03-01T17:49:57.092Z,2.83
2023-03-01T17:53:48.464Z,2.67
2023-03-01T17:57:24.534Z,2.51
2023-03-01T18:00:40.643Z,2.14
2023-03-01T18:04:23.132Z,2.12
2023-03-01T18:07:58.973Z,1.97
2023-03-01T18:11:32.242Z,1.94
2023-03-01T18:15:22.851Z,1.72
2023-03-01T18:19:12.865Z,1.74
2023-03-01T18:23:04.989Z,1.70
2023-03-01T18:26:54.058Z,1.59
2023-03-01T18:30:15.881Z,1.38
2023-03-01T18:33:49.180Z,1.33
2023-03-01T18:37:30.547Z,1.26
2023-03-01T18:41:12.628Z,1.01
2023-03-01T18:44:50.263Z,0.88
2023-03-01T18:48:42.259Z,0.83
2023-03-01T18:52:33.799Z,0.76
2023-03-01T18:56:46.147Z,0.70
2023-03-01T19:00:37.459Z,0.65
2023-03-01T19:04:12.840Z,0.47
2023-03-01T19:07:42.190Z,0.47
2023-03-01T19:11:36.702Z,0.56
2023-03-01T19:15:18.289Z,0.40
2023-03-01T19:19:01.311Z,0.35
2023-03-01T19:22:42.478Z,0.30
2023-03-01T19:26:22.567Z,0.24
2023-03-01T19:30:13.429Z,0.19
2023-03-01T19:34:11.599Z,0.19
2023-03-01T19:38:06.524Z,0.15
2023-03-01T19:41:47.017Z,-0.03
2023-03-01T19:45:33.988Z,0.01
2023-03-01T19:49:26.896Z,-0.09
2023-03-01T19:52:57.455Z,-0.06
2023-03-01T19:56:28.542Z,0.15
2023-03-01T19:59:56.534Z,-0.05
2023-03-01T20:03:31.812Z,0.12
2023-03-01T20:07:15.428Z,0.34
2023-03-01T20:10:26.868Z,0.37
2023-03-01T20:14:07.090Z,0.41
2023-03-01T20:17:28.570Z,0.45
2023-03-01T20:21:00.464Z,0.25
2023-03-01T20:24:32.028Z,-0.19
2023-03-01T20:27:56.355Z,-0.20
2023-03-01T20:31:50.218Z,-0.22
2023-03-01T20:35:17.204Z,-0.14
2023-03-01T20:39:12.463Z,-0.12
2023-03-01T20:43:24.181Z,-0.03
2023-03-01T20:47:19.787Z,-0.23
2023-03-01T20:51:10.461Z,-0.30
2023-03-01T20:55:01.789Z,-0.27
2023-03-01T20:58:51.580Z,-0.20
2023-03-01T21:02:42.973Z,-0.39
2023-03-01T21:06:36.540Z,-0.55
2023-03-01T21:10:26.830Z,-0.57
2023-03-01T21:14:15.972Z,-0.56
2023-03-01T21:18:06.328Z,-0.56
2023-03-01T21:22:00.639Z,-0.51
2023-03-01T21:25:53.774Z,-0.61
2023-03-01T21:29:44.651Z,-0.56
2023-03-01T21:33:35.370Z,-0.61
2023-03-01T21:37:45.458Z,-0.71
2023-03-01T21:41:39.379Z,-0.70
2023-03-01T21:45:31.373Z,-0.82
2023-03-01T21:49:41.672Z,-1.02
2023-03-01T21:53:26.371Z,-1.13
2023-03-01T21:57:36.053Z,-0.65
2023-03-01T22:01:26.832Z,-0.63
2023-03-01T22:05:36.832Z,-0.87
2023-03-01T22:09:28.428Z,-1.19
2023-03-01T22:13:27.194Z,-1.40
2023-03-01T22:17:18.702Z,-1.53
2023-03-01T22:21:12.240Z,-1.54
2023-03-01T22:25:43.803Z,-1.55
2023-03-01T22:34:33.768Z,-1.64
2023-03-01T22:39:08.166Z,-1.59
2023-03-01T22:43:42.437Z,-1.59
2023-03-01T22:48:13.916Z,-1.80
2023-03-01T22:52:30.871Z,-1.70
2023-03-01T22:57:02.909Z,-1.69
2023-03-01T23:01:14.621Z,-1.73
2023-03-01T23:05:43.776Z,-1.74
2023-03-01T23:10:18.963Z,-1.75
2023-03-01T23:14:48.241Z,-2.03
2023-03-01T23:19:19.510Z,-1.96
2023-03-01T23:26:54.558Z,-2.25
2023-03-01T23:31:37.485Z,-2.20
2023-03-01T23:36:05.230Z,-2.32
2023-03-01T23:40:33.248Z,-2.44
2023-03-01T23:45:04.847Z,-2.30
2023-03-01T23:49:33.918Z,-2.63
2023-03-01T23:54:07.326Z,-2.77
2023-03-01T23:58:34.789Z,-2.79
